Time;durP1;ratioP1;P1;durP2;ratioP2;P2;SDS_P1;SDS_P2;PMS_P1;PMS_P2;Temp;Humidity;BMP_temperature;BMP_pressure;BME280_temperature;BME280_humidity;BME280_pressure;Samples;Min_cycle;Max_cycle;Signal;HPM_P1;HPM_P2
2022/04/10 00:00:11;;;;;;;1.25;0.70;;;12.40;68.70;;;;;;5020914;28;20041;-74
2022/04/10 00:02:38;;;;;;;1.73;0.68;;;12.40;68.70;;;;;;5016292;28;20042;-74
2022/04/10 00:05:05;;;;;;;1.95;0.73;;;12.40;68.70;;;;;;4997387;28;20490;-73
2022/04/10 00:07:33;;;;;;;1.20;0.60;;;12.40;68.70;;;;;;5019375;28;20053;-73
2022/04/10 00:10:00;;;;;;;1.38;0.60;;;12.40;68.80;;;;;;5019167;28;20044;-76
2022/04/10 00:12:28;;;;;;;2.58;0.80;;;12.40;68.80;;;;;;5021906;28;20049;-73
2022/04/10 00:14:54;;;;;;;1.23;0.65;;;12.40;68.80;;;;;;5027723;28;20453;-74
2022/04/10 00:17:21;;;;;;;1.83;0.65;;;12.40;68.80;;;;;;5017584;28;20049;-72
2022/04/10 00:19:48;;;;;;;1.80;0.80;;;12.40;68.90;;;;;;5022487;28;20053;-73
2022/04/10 00:22:15;;;;;;;2.10;0.88;;;12.40;68.80;;;;;;5014818;28;20054;-73
2022/04/10 00:24:43;;;;;;;1.63;0.73;;;12.40;68.70;;;;;;5020476;28;20391;-73
2022/04/10 00:27:13;;;;;;;1.80;0.75;;;12.40;68.80;;;;;;5019864;28;20055;-72
2022/04/10 00:29:40;;;;;;;2.30;0.80;;;12.40;68.80;;;;;;5000698;28;20041;-74
2022/04/10 00:32:08;;;;;;;2.20;0.90;;;12.40;68.90;;;;;;5017752;28;20044;-74
2022/04/10 00:34:35;;;;;;;2.38;0.85;;;12.40;68.70;;;;;;5017275;28;20132;-74
2022/04/10 00:37:01;;;;;;;1.88;0.70;;;12.40;68.70;;;;;;5017415;28;20053;-74
2022/04/10 00:39:28;;;;;;;1.48;0.80;;;12.40;68.80;;;;;;5014536;28;20187;-73
2022/04/10 00:41:56;;;;;;;1.10;0.60;;;12.40;68.90;;;;;;5016933;28;20069;-72
2022/04/10 00:44:23;;;;;;;1.42;0.60;;;12.40;68.70;;;;;;5014437;28;20053;-76
2022/04/10 00:46:50;;;;;;;1.45;0.70;;;12.40;68.80;;;;;;5016558;28;20128;-73
2022/04/10 00:49:19;;;;;;;1.40;0.70;;;12.40;68.70;;;;;;5020939;28;20080;-72
2022/04/10 00:51:47;;;;;;;1.80;0.77;;;12.40;68.70;;;;;;5010043;28;20049;-73
2022/04/10 00:54:17;;;;;;;1.88;0.77;;;12.40;68.70;;;;;;4997700;28;20048;-74
2022/04/10 00:56:45;;;;;;;2.30;1.00;;;12.30;68.70;;;;;;5001353;28;20088;-73
2022/04/10 00:59:13;;;;;;;1.52;0.80;;;12.30;68.70;;;;;;5016214;28;20058;-73
2022/04/10 01:01:44;;;;;;;2.72;0.70;;;12.30;68.70;;;;;;5018928;28;20099;-73
2022/04/10 01:04:12;;;;;;;1.23;0.70;;;12.30;68.70;;;;;;5019519;28;20050;-73
2022/04/10 01:06:40;;;;;;;2.17;0.80;;;12.30;68.70;;;;;;5022491;28;20044;-73
2022/04/10 01:09:07;;;;;;;1.98;0.77;;;12.30;68.80;;;;;;5020438;28;20042;-73
2022/04/10 01:11:35;;;;;;;1.80;0.90;;;12.30;68.70;;;;;;5031071;28;20049;-75
2022/04/10 01:14:04;;;;;;;3.38;0.80;;;12.30;68.60;;;;;;5029601;28;20111;-75
2022/04/10 01:16:41;;;;;;;1.50;0.80;;;12.30;68.70;;;;;;5032461;28;20139;-74
2022/04/10 01:19:11;;;;;;;1.45;0.80;;;12.30;68.70;;;;;;5005977;28;20124;-74
2022/04/10 01:21:42;;;;;;;1.70;0.80;;;12.30;68.70;;;;;;5021728;28;20038;-73
2022/04/10 01:24:11;;;;;;;1.90;0.80;;;12.30;68.70;;;;;;5018474;28;20057;-75
2022/04/10 01:26:38;;;;;;;2.33;0.80;;;12.30;68.60;;;;;;5019712;28;20077;-73
2022/04/10 01:29:08;;;;;;;2.20;0.80;;;12.30;68.60;;;;;;5018655;28;20099;-74
2022/04/10 01:31:37;;;;;;;2.05;1.00;;;12.30;68.70;;;;;;5021668;28;20044;-74
2022/04/10 01:34:06;;;;;;;1.95;0.80;;;12.30;68.70;;;;;;5018159;28;20099;-76
2022/04/10 01:36:34;;;;;;;2.08;0.90;;;12.30;68.70;;;;;;5000927;28;20054;-74
2022/04/10 01:39:03;;;;;;;2.15;0.90;;;12.30;68.70;;;;;;5019842;28;20145;-74
2022/04/10 01:41:32;;;;;;;1.92;0.80;;;12.30;68.70;;;;;;5020831;28;20053;-74
2022/04/10 01:44:00;;;;;;;2.38;0.90;;;12.30;68.80;;;;;;5018151;28;20045;-73
2022/04/10 01:46:28;;;;;;;2.28;0.90;;;12.30;68.70;;;;;;5017026;28;20041;-75
2022/04/10 01:48:55;;;;;;;1.70;1.00;;;12.30;68.70;;;;;;4997778;28;20099;-74
2022/04/10 01:51:23;;;;;;;3.08;1.08;;;12.30;68.70;;;;;;5019344;28;20044;-74
2022/04/10 01:53:50;;;;;;;2.05;0.77;;;12.30;68.60;;;;;;5012532;28;20134;-74
2022/04/10 01:56:17;;;;;;;1.90;0.90;;;12.30;68.70;;;;;;5015912;28;20125;-74
2022/04/10 01:58:47;;;;;;;1.92;0.82;;;12.30;68.60;;;;;;5014953;28;20138;-74
2022/04/10 02:01:16;;;;;;;2.38;0.80;;;12.30;69.40;;;;;;5020497;28;20143;-73
2022/04/10 02:03:44;;;;;;;2.42;0.90;;;12.30;68.60;;;;;;5016684;28;20049;-73
2022/04/10 02:06:12;;;;;;;1.77;0.75;;;12.30;68.70;;;;;;5018872;28;20096;-73
2022/04/10 02:08:41;;;;;;;2.47;0.93;;;12.30;68.60;;;;;;5013653;28;20037;-73
2022/04/10 02:11:11;;;;;;;1.70;0.90;;;12.30;68.70;;;;;;5021418;28;20041;-74
2022/04/10 02:13:38;;;;;;;2.03;0.93;;;12.30;68.70;;;;;;5018590;28;20041;-74
2022/04/10 02:16:08;;;;;;;2.03;0.88;;;12.30;68.70;;;;;;5017106;28;20045;-74
2022/04/10 02:18:36;;;;;;;1.73;0.90;;;12.30;68.80;;;;;;5013758;28;20049;-74
2022/04/10 02:21:04;;;;;;;2.22;1.10;;;12.30;68.70;;;;;;5016532;28;20088;-73
2022/04/10 02:23:31;;;;;;;2.60;0.95;;;12.30;68.80;;;;;;5014078;28;20045;-74
2022/04/10 02:25:58;;;;;;;1.98;0.90;;;12.30;68.70;;;;;;5014973;28;20064;-74
2022/04/10 02:28:25;;;;;;;1.98;1.00;;;12.30;68.70;;;;;;5014151;28;20076;-72
2022/04/10 02:30:52;;;;;;;1.42;0.80;;;12.20;68.70;;;;;;5011089;28;20041;-73
2022/04/10 02:33:20;;;;;;;1.92;1.00;;;12.30;68.80;;;;;;5016095;28;20046;-74
2022/04/10 02:35:47;;;;;;;2.15;1.00;;;12.30;68.80;;;;;;5001458;28;20052;-74
2022/04/10 02:38:16;;;;;;;2.17;1.10;;;12.30;68.70;;;;;;5016760;28;20124;-73
2022/04/10 02:40:44;;;;;;;2.38;1.13;;;12.30;68.70;;;;;;5035389;28;20093;-74
2022/04/10 02:43:13;;;;;;;2.33;0.95;;;12.30;68.80;;;;;;5028915;28;20041;-73
2022/04/10 02:45:41;;;;;;;2.22;0.98;;;12.20;68.60;;;;;;5003958;28;20041;-74
2022/04/10 02:48:08;;;;;;;2.55;1.10;;;12.20;68.60;;;;;;5002979;28;20057;-75
2022/04/10 02:50:37;;;;;;;2.05;1.00;;;12.30;68.80;;;;;;5022063;28;20065;-76
2022/04/10 02:53:04;;;;;;;3.15;0.93;;;12.30;68.70;;;;;;5023140;28;20120;-75
2022/04/10 02:55:31;;;;;;;1.65;0.90;;;12.20;68.60;;;;;;5020393;28;20472;-74
2022/04/10 02:57:58;;;;;;;2.55;1.10;;;12.20;68.60;;;;;;5023186;28;20112;-74
2022/04/10 03:00:25;;;;;;;2.40;1.10;;;12.20;68.70;;;;;;5022424;28;20073;-73
2022/04/10 03:02:52;;;;;;;2.30;1.00;;;12.20;68.60;;;;;;5018089;28;20116;-74
2022/04/10 03:05:19;;;;;;;1.60;0.80;;;12.20;68.60;;;;;;5023573;28;20053;-74
2022/04/10 03:07:47;;;;;;;2.75;1.02;;;12.20;69.30;;;;;;5037335;28;20064;-73
2022/04/10 03:10:14;;;;;;;3.72;1.33;;;12.20;68.70;;;;;;5037922;28;20048;-75
2022/04/10 03:12:41;;;;;;;2.00;1.00;;;12.20;68.60;;;;;;5034551;28;20103;-75
2022/04/10 03:15:09;;;;;;;2.20;1.10;;;12.20;68.60;;;;;;5026373;28;20510;-74
2022/04/10 03:17:36;;;;;;;2.65;1.20;;;12.20;68.60;;;;;;5019188;28;20046;-76
2022/04/10 03:20:02;;;;;;;1.85;1.02;;;12.20;68.60;;;;;;5018284;28;20076;-76
2022/04/10 03:22:29;;;;;;;2.20;1.02;;;12.20;68.60;;;;;;5018148;28;20470;-75
2022/04/10 03:24:57;;;;;;;2.65;1.10;;;12.20;68.50;;;;;;5022722;28;20041;-76
2022/04/10 03:27:24;;;;;;;3.20;1.00;;;12.20;68.60;;;;;;5019926;28;20194;-76
2022/04/10 03:29:51;;;;;;;2.05;0.93;;;12.20;68.60;;;;;;5021456;28;20466;-75
2022/04/10 03:32:17;;;;;;;2.97;1.13;;;12.20;68.60;;;;;;5014831;28;20037;-76
2022/04/10 03:34:44;;;;;;;1.90;0.80;;;12.20;68.50;;;;;;5018102;28;20041;-76
2022/04/10 03:37:12;;;;;;;1.38;1.00;;;12.20;68.50;;;;;;5016640;28;20050;-75
2022/04/10 03:39:38;;;;;;;2.45;1.13;;;12.20;68.60;;;;;;5017828;28;20057;-75
2022/04/10 03:42:08;;;;;;;2.72;1.20;;;12.20;68.60;;;;;;5021455;28;20053;-75
2022/04/10 03:44:35;;;;;;;1.77;1.02;;;12.20;68.60;;;;;;5020224;28;20046;-75
2022/04/10 03:47:02;;;;;;;1.60;0.95;;;12.20;68.50;;;;;;5015869;28;20065;-75
2022/04/10 03:49:28;;;;;;;3.00;1.05;;;12.20;68.60;;;;;;5004659;28;20128;-75
2022/04/10 03:51:55;;;;;;;1.63;1.05;;;12.20;68.50;;;;;;5000158;28;20125;-75
2022/04/10 03:54:22;;;;;;;2.30;1.10;;;12.20;68.60;;;;;;5015701;28;20464;-76
2022/04/10 03:56:49;;;;;;;1.70;0.98;;;12.20;68.50;;;;;;5000584;28;20038;-76
2022/04/10 03:59:17;;;;;;;3.05;1.20;;;12.20;68.60;;;;;;5017651;28;20053;-76
2022/04/10 04:01:44;;;;;;;1.83;0.90;;;12.20;68.60;;;;;;5001339;28;20052;-75
2022/04/10 04:04:11;;;;;;;2.63;1.20;;;12.20;68.60;;;;;;5017221;28;20116;-77
2022/04/10 04:06:38;;;;;;;2.03;1.10;;;12.20;68.50;;;;;;5018587;28;20144;-76
2022/04/10 04:09:04;;;;;;;1.90;1.02;;;12.10;68.40;;;;;;5014886;28;20045;-75
2022/04/10 04:11:31;;;;;;;1.95;1.08;;;12.10;68.30;;;;;;5012160;28;20140;-75
2022/04/10 04:13:58;;;;;;;3.08;1.20;;;12.10;68.40;;;;;;5020431;28;20088;-76
2022/04/10 04:16:27;;;;;;;2.03;1.10;;;12.20;68.40;;;;;;5002670;28;20049;-75
2022/04/10 04:18:54;;;;;;;1.98;1.05;;;12.10;68.20;;;;;;5015661;28;20045;-75
2022/04/10 04:21:21;;;;;;;2.63;1.27;;;12.10;68.40;;;;;;5018837;28;20076;-76
2022/04/10 04:23:48;;;;;;;2.95;1.23;;;12.10;68.40;;;;;;5013963;28;20117;-73
2022/04/10 04:26:15;;;;;;;2.10;1.02;;;12.10;68.40;;;;;;5019286;28;20041;-72
2022/04/10 04:28:42;;;;;;;3.10;1.10;;;12.10;68.50;;;;;;4997551;28;20048;-73
2022/04/10 04:31:08;;;;;;;2.47;1.30;;;12.10;68.40;;;;;;5017659;28;20404;-74
2022/04/10 04:33:37;;;;;;;3.45;1.20;;;12.10;68.30;;;;;;4995964;28;20122;-72
2022/04/10 04:36:04;;;;;;;2.25;1.08;;;12.10;68.30;;;;;;5019393;28;20033;-72
2022/04/10 04:38:31;;;;;;;2.85;1.05;;;12.10;68.20;;;;;;5013018;28;20033;-73
2022/04/10 04:40:58;;;;;;;2.15;1.08;;;12.10;68.30;;;;;;5002386;28;20059;-73
2022/04/10 04:43:25;;;;;;;2.40;1.10;;;12.10;68.20;;;;;;5015147;28;20052;-72
2022/04/10 04:45:52;;;;;;;2.00;1.10;;;12.10;68.20;;;;;;5019439;28;20049;-73
2022/04/10 04:48:18;;;;;;;1.98;0.98;;;12.10;68.30;;;;;;5019727;28;20434;-73
2022/04/10 04:50:48;;;;;;;2.75;1.10;;;12.10;68.20;;;;;;5021446;28;20033;-72
2022/04/10 04:53:15;;;;;;;1.63;0.80;;;12.10;68.20;;;;;;5016707;28;20041;-73
2022/04/10 04:55:42;;;;;;;2.15;0.95;;;12.10;68.20;;;;;;5018212;28;20045;-73
2022/04/10 04:58:09;;;;;;;2.35;1.20;;;12.10;68.20;;;;;;5016614;28;20496;-72
2022/04/10 05:00:37;;;;;;;2.25;1.10;;;12.10;68.20;;;;;;5020869;28;20895;-73
2022/04/10 05:03:03;;;;;;;2.70;1.10;;;12.10;68.20;;;;;;5022326;28;20077;-73
2022/04/10 05:05:31;;;;;;;2.15;0.82;;;12.00;68.10;;;;;;5023027;28;20056;-72
2022/04/10 05:07:59;;;;;;;2.97;1.20;;;12.00;68.10;;;;;;5020170;28;20038;-73
2022/04/10 05:10:26;;;;;;;2.15;1.20;;;12.00;68.20;;;;;;5000912;28;20052;-73
2022/04/10 05:12:54;;;;;;;3.90;1.20;;;12.00;68.20;;;;;;5002155;28;20049;-74
2022/04/10 05:15:22;;;;;;;2.25;1.13;;;12.00;68.10;;;;;;5017439;28;20091;-73
2022/04/10 05:17:49;;;;;;;1.85;1.00;;;12.00;68.20;;;;;;5003329;28;20054;-73
2022/04/10 05:20:15;;;;;;;2.17;1.10;;;12.10;68.20;;;;;;5020587;28;20053;-72
2022/04/10 05:22:43;;;;;;;2.72;1.38;;;12.00;68.00;;;;;;4998884;28;20064;-74
2022/04/10 05:25:11;;;;;;;3.10;1.20;;;12.00;68.00;;;;;;5002411;28;20052;-73
2022/04/10 05:27:38;;;;;;;2.47;1.35;;;12.00;68.20;;;;;;5012933;28;20045;-76
2022/04/10 05:30:06;;;;;;;2.85;1.10;;;12.00;68.00;;;;;;5013713;28;20040;-75
2022/04/10 05:32:33;;;;;;;2.05;1.15;;;12.00;68.10;;;;;;5012164;28;20128;-75
2022/04/10 05:35:00;;;;;;;2.05;1.15;;;12.00;68.10;;;;;;5018724;28;20094;-77
2022/04/10 05:37:27;;;;;;;1.92;1.10;;;12.00;68.00;;;;;;5016050;28;20103;-76
2022/04/10 05:39:54;;;;;;;2.85;1.40;;;12.00;68.10;;;;;;5018939;28;20049;-76
2022/04/10 05:42:23;;;;;;;2.53;1.38;;;12.00;68.00;;;;;;5001717;28;20042;-76
2022/04/10 05:44:49;;;;;;;2.17;1.10;;;12.00;68.10;;;;;;5018262;28;20051;-75
2022/04/10 05:47:16;;;;;;;2.05;1.10;;;12.00;68.00;;;;;;5020162;28;20054;-76
2022/04/10 05:49:43;;;;;;;2.70;1.20;;;12.00;68.00;;;;;;5021079;28;20042;-76
2022/04/10 05:52:10;;;;;;;2.30;1.10;;;12.00;68.00;;;;;;5012773;28;20038;-74
2022/04/10 05:54:37;;;;;;;2.90;1.10;;;12.00;68.00;;;;;;5018661;28;20033;-74
2022/04/10 05:57:04;;;;;;;2.55;1.30;;;12.00;68.00;;;;;;5000158;28;20049;-74
2022/04/10 05:59:32;;;;;;;1.88;1.05;;;12.00;68.00;;;;;;5019851;28;20061;-74
2022/04/10 06:02:00;;;;;;;2.08;1.10;;;12.00;68.10;;;;;;5015370;28;20045;-74
2022/04/10 06:04:27;;;;;;;1.70;1.00;;;12.00;68.00;;;;;;5019684;28;20041;-73
2022/04/10 06:06:55;;;;;;;1.85;1.10;;;12.00;68.10;;;;;;5020127;28;20519;-74
2022/04/10 06:09:22;;;;;;;2.85;1.15;;;12.00;68.10;;;;;;5000581;28;20038;-73
2022/04/10 06:11:48;;;;;;;2.40;1.15;;;12.00;68.20;;;;;;5016163;28;20056;-73
2022/04/10 06:14:15;;;;;;;3.55;1.30;;;12.00;68.00;;;;;;5014734;28;20115;-73
2022/04/10 06:16:43;;;;;;;1.67;1.10;;;12.00;68.10;;;;;;5016199;28;20060;-73
2022/04/10 06:19:16;;;;;;;2.40;1.00;;;12.00;68.10;;;;;;5018083;28;20041;-73
2022/04/10 06:21:42;;;;;;;2.33;1.27;;;12.00;68.00;;;;;;5011122;28;20042;-74
2022/04/10 06:24:09;;;;;;;3.15;1.40;;;12.00;67.80;;;;;;5010003;28;20487;-72
2022/04/10 06:26:37;;;;;;;2.58;1.30;;;12.00;67.70;;;;;;5011231;28;20041;-74
2022/04/10 06:29:03;;;;;;;2.38;1.20;;;12.00;67.60;;;;;;5028862;28;20055;-73
2022/04/10 06:31:30;;;;;;;4.10;1.23;;;12.00;67.60;;;;;;5020596;28;20046;-73
2022/04/10 06:33:59;;;;;;;3.08;1.40;;;12.00;68.30;;;;;;5022544;28;20045;-73
2022/04/10 06:36:25;;;;;;;2.17;1.15;;;12.00;67.50;;;;;;4998705;28;20046;-73
2022/04/10 06:38:52;;;;;;;3.53;1.40;;;12.00;68.30;;;;;;5021319;28;20228;-73
2022/04/10 06:41:19;;;;;;;2.40;1.10;;;12.00;67.50;;;;;;5017316;28;20057;-74
2022/04/10 06:43:50;;;;;;;3.05;1.33;;;12.10;67.60;;;;;;5001463;28;20037;-73
2022/04/10 06:46:17;;;;;;;2.40;1.05;;;12.00;67.50;;;;;;5021132;28;20111;-72
2022/04/10 06:48:47;;;;;;;2.40;1.27;;;12.00;67.60;;;;;;5024151;28;20041;-73
2022/04/10 06:51:16;;;;;;;2.38;1.40;;;12.10;67.60;;;;;;5003793;28;20057;-73
2022/04/10 06:53:43;;;;;;;4.25;1.40;;;12.10;67.60;;;;;;5024150;28;20053;-74
2022/04/10 06:56:23;;;;;;;1.92;1.10;;;12.00;67.50;;;;;;5005318;28;20050;-74
2022/04/10 06:59:22;;;;;;;3.85;1.20;;;12.10;67.50;;;;;;5003016;28;20053;-74
2022/04/10 07:01:49;;;;;;;2.42;1.13;;;12.10;67.60;;;;;;5022943;28;20122;-74
2022/04/10 07:04:16;;;;;;;3.15;1.38;;;12.10;67.60;;;;;;5044574;28;20108;-75
2022/04/10 07:06:46;;;;;;;3.40;1.27;;;12.10;67.70;;;;;;5025110;28;20080;-74
2022/04/10 07:09:14;;;;;;;2.30;1.30;;;12.10;67.70;;;;;;5029981;28;20096;-73
2022/04/10 07:11:41;;;;;;;2.33;1.35;;;12.10;67.70;;;;;;5023746;28;20045;-73
2022/04/10 07:14:08;;;;;;;1.90;1.20;;;12.10;67.70;;;;;;5022083;28;20034;-73
2022/04/10 07:16:35;;;;;;;2.50;1.35;;;12.10;67.80;;;;;;5029763;28;20069;-72
2022/04/10 07:19:02;;;;;;;2.55;1.30;;;12.10;67.80;;;;;;5014882;28;20045;-73
2022/04/10 07:24:15;;;;;;;2.67;1.20;;;12.10;67.80;;;;;;5024750;28;20496;-73
2022/04/10 07:26:41;;;;;;;2.42;1.20;;;12.20;67.90;;;;;;5017565;28;20041;-73
2022/04/10 07:29:10;;;;;;;2.13;1.20;;;12.20;67.90;;;;;;5011239;28;20511;-73
2022/04/10 07:31:37;;;;;;;1.80;1.20;;;12.10;67.80;;;;;;5021472;28;20049;-72
2022/04/10 07:34:04;;;;;;;2.70;1.20;;;12.20;67.90;;;;;;5019691;28;20052;-73
2022/04/10 07:36:32;;;;;;;3.80;1.27;;;12.20;67.90;;;;;;5030456;28;20627;-74
2022/04/10 07:38:59;;;;;;;2.53;1.23;;;12.20;67.90;;;;;;5017231;28;20056;-73
2022/04/10 07:41:27;;;;;;;3.05;1.30;;;12.20;67.90;;;;;;5011337;28;20052;-72
2022/04/10 07:43:54;;;;;;;3.75;1.42;;;12.20;67.90;;;;;;5017995;28;20125;-74
2022/04/10 07:49:06;;;;;;;1.65;1.05;;;12.20;67.90;;;;;;5027726;28;20041;-74
2022/04/10 07:51:33;;;;;;;2.25;1.10;;;12.20;68.00;;;;;;5028554;28;20052;-74
2022/04/10 07:53:59;;;;;;;2.50;1.20;;;12.20;68.00;;;;;;4999017;28;20045;-73
2022/04/10 07:56:29;;;;;;;2.30;1.20;;;12.30;68.10;;;;;;5019020;28;20475;-74
2022/04/10 07:58:55;;;;;;;2.33;1.20;;;12.30;68.10;;;;;;5006999;28;20089;-75
2022/04/10 08:01:22;;;;;;;2.63;1.08;;;12.30;68.10;;;;;;5024491;28;20045;-73
2022/04/10 08:03:51;;;;;;;2.35;1.00;;;12.30;68.10;;;;;;5003817;28;20049;-73
2022/04/10 08:06:19;;;;;;;2.83;1.17;;;12.30;68.10;;;;;;5006396;28;20037;-73
2022/04/10 08:08:46;;;;;;;2.53;1.27;;;12.30;68.20;;;;;;5018331;28;20049;-74
2022/04/10 08:11:12;;;;;;;2.90;1.17;;;12.30;68.20;;;;;;5002405;28;20103;-72
2022/04/10 08:13:41;;;;;;;2.28;1.10;;;12.30;68.20;;;;;;5021549;28;20065;-74
2022/04/10 08:16:08;;;;;;;2.42;1.10;;;12.30;68.30;;;;;;5019550;28;20041;-74
2022/04/10 08:18:35;;;;;;;1.92;1.10;;;12.30;68.20;;;;;;5025593;28;20077;-75
2022/04/10 08:21:02;;;;;;;2.80;1.00;;;12.40;68.40;;;;;;5017284;28;20054;-74
2022/04/10 08:23:29;;;;;;;3.40;1.15;;;12.40;68.40;;;;;;5013895;28;20046;-73
2022/04/10 08:25:55;;;;;;;2.15;1.10;;;12.40;68.30;;;;;;5016932;28;20121;-73
2022/04/10 08:28:22;;;;;;;2.20;1.00;;;12.40;68.40;;;;;;5013031;28;20120;-74
2022/04/10 08:30:51;;;;;;;4.15;1.30;;;12.40;68.40;;;;;;5017222;28;20099;-74
2022/04/10 08:33:17;;;;;;;2.70;1.05;;;12.40;68.40;;;;;;5025953;28;20041;-74
2022/04/10 08:35:45;;;;;;;2.28;1.08;;;12.40;68.30;;;;;;5027279;28;20419;-74
2022/04/10 08:38:12;;;;;;;3.40;1.10;;;12.40;68.40;;;;;;5018745;28;20144;-73
2022/04/10 08:40:40;;;;;;;5.55;1.38;;;12.40;68.30;;;;;;5021831;28;20054;-75
2022/04/10 08:43:08;;;;;;;4.63;1.20;;;12.40;68.30;;;;;;5018015;28;20045;-76
2022/04/10 08:45:36;;;;;;;2.40;1.02;;;12.40;68.30;;;;;;5018494;28;20048;-74
2022/04/10 08:48:06;;;;;;;2.53;0.95;;;12.40;68.40;;;;;;5019283;28;20057;-77
2022/04/10 08:50:33;;;;;;;1.70;0.90;;;12.40;68.30;;;;;;5022149;28;20069;-73
2022/04/10 08:53:00;;;;;;;2.10;1.05;;;12.50;68.40;;;;;;5001348;28;20052;-73
2022/04/10 08:55:27;;;;;;;3.25;1.00;;;12.50;68.50;;;;;;5011421;28;20065;-72
2022/04/10 08:57:55;;;;;;;2.00;0.90;;;12.50;68.50;;;;;;5033995;28;20046;-74
2022/04/10 09:00:23;;;;;;;2.17;1.00;;;12.50;68.40;;;;;;5026440;28;20412;-76
2022/04/10 09:02:51;;;;;;;3.35;0.85;;;12.40;68.20;;;;;;5023540;28;20069;-76
2022/04/10 09:05:20;;;;;;;2.83;0.75;;;12.40;68.20;;;;;;4999959;28;20067;-73
2022/04/10 09:08:07;;;;;;;2.05;0.93;;;12.40;68.10;;;;;;5003040;28;20518;-75
2022/04/10 09:11:01;;;;;;;2.20;0.90;;;12.40;68.10;;;;;;5000356;28;20049;-73
2022/04/10 09:13:31;;;;;;;1.92;0.80;;;12.40;68.10;;;;;;5001703;28;20053;-75
2022/04/10 09:16:13;;;;;;;2.95;0.90;;;12.40;67.80;;;;;;5017795;28;20057;-75
2022/04/10 09:18:49;;;;;;;2.88;0.95;;;12.40;68.00;;;;;;5018863;28;20046;-74
2022/04/10 09:21:18;;;;;;;1.92;0.75;;;12.40;67.90;;;;;;5019327;28;20484;-73
2022/04/10 09:23:53;;;;;;;2.95;0.90;;;12.40;68.00;;;;;;5018928;28;20052;-77
2022/04/10 09:26:20;;;;;;;2.45;1.08;;;12.50;68.00;;;;;;5018331;28;20042;-75
2022/04/10 09:28:48;;;;;;;2.40;0.90;;;12.40;67.80;;;;;;5018560;28;20465;-76
2022/04/10 09:31:32;;;;;;;1.83;0.80;;;12.30;67.70;;;;;;5020679;28;20045;-74
2022/04/10 09:34:01;;;;;;;2.28;1.10;;;12.40;67.70;;;;;;5017315;28;20129;-74
2022/04/10 09:36:37;;;;;;;2.53;0.77;;;12.40;67.70;;;;;;5014523;28;20041;-73
2022/04/10 09:39:10;;;;;;;2.58;0.77;;;12.40;67.80;;;;;;5008729;28;20045;-72
2022/04/10 09:41:37;;;;;;;3.22;1.00;;;12.40;67.80;;;;;;5011171;28;20042;-75
2022/04/10 09:44:20;;;;;;;1.85;0.80;;;12.40;67.80;;;;;;5009334;28;20038;-73
2022/04/10 09:46:59;;;;;;;2.67;0.95;;;12.40;67.80;;;;;;5011636;28;20065;-77
2022/04/10 09:49:31;;;;;;;3.58;1.00;;;12.40;67.70;;;;;;5016560;28;20099;-76
2022/04/10 09:52:07;;;;;;;2.38;0.85;;;12.40;67.80;;;;;;5016972;28;20045;-74
2022/04/10 09:54:39;;;;;;;2.05;0.80;;;12.40;67.80;;;;;;5025100;28;20128;-74
2022/04/10 09:57:10;;;;;;;3.47;1.00;;;12.40;67.90;;;;;;5018455;28;20107;-75
2022/04/10 09:59:42;;;;;;;2.70;0.85;;;12.40;68.00;;;;;;5024285;28;20121;-76
2022/04/10 10:02:11;;;;;;;2.63;0.70;;;12.40;67.90;;;;;;5001394;28;20045;-75
2022/04/10 10:04:40;;;;;;;4.18;1.05;;;12.40;67.90;;;;;;5023696;28;20121;-74
2022/04/10 10:07:10;;;;;;;2.83;0.90;;;12.40;67.90;;;;;;5024446;28;20510;-74
2022/04/10 10:09:38;;;;;;;2.50;0.85;;;12.50;68.00;;;;;;5025056;28;20057;-74
2022/04/10 10:12:08;;;;;;;2.67;0.88;;;12.40;67.90;;;;;;5024158;28;20107;-75
2022/04/10 10:14:36;;;;;;;2.78;1.15;;;12.40;68.00;;;;;;5023193;28;20052;-75
2022/04/10 10:17:05;;;;;;;2.25;0.90;;;12.40;67.90;;;;;;5006473;28;20045;-73
2022/04/10 10:19:34;;;;;;;4.38;0.80;;;12.50;68.00;;;;;;5022774;28;20044;-77
2022/04/10 10:22:01;;;;;;;3.05;0.73;;;12.50;68.00;;;;;;5023844;28;20125;-75
2022/04/10 10:24:38;;;;;;;4.45;0.90;;;12.50;67.90;;;;;;5026447;28;20041;-75
2022/04/10 10:27:29;;;;;;;3.00;1.10;;;12.50;67.90;;;;;;5024689;28;20103;-75
2022/04/10 10:30:20;;;;;;;2.08;0.70;;;12.50;67.60;;;;;;4977185;28;20409;-77
2022/04/10 10:32:50;;;;;;;2.17;0.70;;;12.50;67.80;;;;;;5024944;28;20057;-76
2022/04/10 10:35:30;;;;;;;2.28;0.80;;;12.60;67.80;;;;;;5023659;28;20065;-74
2022/04/10 10:37:57;;;;;;;2.90;0.80;;;12.60;67.70;;;;;;5011446;28;20491;-74
2022/04/10 10:40:27;;;;;;;2.60;0.88;;;12.60;67.70;;;;;;5027089;28;20103;-75
2022/04/10 10:43:00;;;;;;;2.22;0.80;;;12.60;67.60;;;;;;5038916;28;20131;-75
2022/04/10 10:45:35;;;;;;;1.92;0.55;;;12.60;67.60;;;;;;5031206;28;20033;-76
2022/04/10 10:48:38;;;;;;;2.53;0.80;;;12.60;67.40;;;;;;5037083;28;20053;-73
2022/04/10 10:51:38;;;;;;;1.70;0.70;;;12.60;67.30;;;;;;5027864;28;20045;-78
2022/04/10 10:54:10;;;;;;;1.73;0.80;;;12.60;67.50;;;;;;5026099;28;20053;-76
2022/04/10 10:56:40;;;;;;;2.28;0.70;;;12.60;67.40;;;;;;5030970;28;20029;-75
2022/04/10 10:59:30;;;;;;;2.17;0.60;;;12.60;67.30;;;;;;5026993;28;20060;-76
2022/04/10 11:02:03;;;;;;;1.88;0.55;;;12.60;67.40;;;;;;5020199;28;20061;-73
2022/04/10 11:04:33;;;;;;;;;;;12.60;67.20;;;;;;5023357;28;20399;-73
2022/04/10 11:07:11;;;;;;;2.17;0.60;;;12.60;67.10;;;;;;5023168;28;20016;-73
2022/04/10 11:09:54;;;;;;;2.40;0.60;;;12.60;67.00;;;;;;5022927;28;20057;-74
2022/04/10 11:12:24;;;;;;;1.60;0.63;;;12.60;67.20;;;;;;5019795;28;20081;-75
2022/04/10 11:14:51;;;;;;;2.00;0.70;;;12.60;67.20;;;;;;5024916;28;20049;-77
2022/04/10 11:17:20;;;;;;;1.02;0.40;;;12.60;66.90;;;;;;5023172;28;20136;-75
2022/04/10 11:19:48;;;;;;;1.65;0.70;;;12.60;67.10;;;;;;4998095;28;20516;-74
2022/04/10 11:22:20;;;;;;;3.03;0.90;;;12.60;67.10;;;;;;5020320;28;20037;-76
2022/04/10 11:24:50;;;;;;;1.90;0.80;;;12.60;67.80;;;;;;5015961;28;20033;-76
2022/04/10 11:27:48;;;;;;;1.40;0.60;;;12.70;67.10;;;;;;5014457;28;20037;-75
2022/04/10 11:30:16;;;;;;;2.85;0.65;;;12.60;67.10;;;;;;5019206;28;20045;-73
2022/04/10 11:32:49;;;;;;;2.08;0.70;;;12.70;67.10;;;;;;5016527;28;20045;-73
2022/04/10 11:35:23;;;;;;;;;;;12.70;67.00;;;;;;4998025;28;20141;-76
2022/04/10 11:37:54;;;;;;;2.58;0.60;;;12.70;67.10;;;;;;5004911;28;19921;-77
2022/04/10 11:40:22;;;;;;;2.65;0.52;;;12.70;66.80;;;;;;5024171;28;20049;-75
2022/04/10 11:42:54;;;;;;;1.13;0.52;;;12.70;66.90;;;;;;5008360;28;20124;-75
2022/04/10 11:45:21;;;;;;;2.72;0.70;;;12.70;66.90;;;;;;5023224;28;20507;-75
2022/04/10 11:47:49;;;;;;;1.52;0.60;;;12.70;66.80;;;;;;5018482;28;20049;-75
2022/04/10 11:50:18;;;;;;;1.45;0.50;;;12.70;66.80;;;;;;5023113;28;20041;-74
2022/04/10 11:52:57;;;;;;;2.50;0.60;;;12.70;66.90;;;;;;5021455;28;20526;-75
2022/04/10 11:55:34;;;;;;;2.38;0.77;;;12.70;66.90;;;;;;5023768;28;20108;-75
2022/04/10 11:58:11;;;;;;;2.05;0.70;;;12.70;66.80;;;;;;5004277;28;20049;-75
2022/04/10 12:00:43;;;;;;;1.88;0.80;;;12.70;66.70;;;;;;5007616;28;20053;-75
2022/04/10 12:03:10;;;;;;;1.48;0.55;;;12.70;66.80;;;;;;5000121;28;20092;-74
2022/04/10 12:05:37;;;;;;;2.20;0.52;;;12.70;66.80;;;;;;5023461;28;20072;-74
2022/04/10 12:08:05;;;;;;;1.75;0.68;;;12.70;66.90;;;;;;5004755;28;20052;-75
2022/04/10 12:10:33;;;;;;;1.63;0.55;;;12.70;66.80;;;;;;5005391;28;20065;-76
2022/04/10 12:13:00;;;;;;;1.27;0.47;;;12.70;66.70;;;;;;5017384;28;20045;-75
2022/04/10 12:15:29;;;;;;;1.50;0.50;;;12.70;67.40;;;;;;5005412;28;20050;-74
2022/04/10 12:18:07;;;;;;;1.67;0.60;;;12.70;66.70;;;;;;5018312;28;20542;-75
2022/04/10 12:20:34;;;;;;;2.42;0.60;;;12.70;66.40;;;;;;5006520;28;20064;-74
2022/04/10 12:23:01;;;;;;;1.90;0.60;;;12.70;66.50;;;;;;5018371;28;20056;-75
2022/04/10 12:25:29;;;;;;;1.65;0.40;;;12.70;66.50;;;;;;5023234;28;20056;-76
2022/04/10 12:27:56;;;;;;;1.48;0.50;;;12.70;66.40;;;;;;5018801;28;20046;-75
2022/04/10 12:30:24;;;;;;;2.28;0.63;;;12.70;66.40;;;;;;5022417;28;20045;-75
2022/04/10 12:32:53;;;;;;;2.45;0.80;;;12.80;66.30;;;;;;5018612;28;20049;-74
2022/04/10 12:35:20;;;;;;;2.33;0.63;;;12.70;66.30;;;;;;5020087;28;20120;-76
2022/04/10 12:37:47;;;;;;;0.95;0.40;;;12.70;66.30;;;;;;5020437;28;20069;-75
2022/04/10 12:40:26;;;;;;;2.67;0.68;;;12.80;66.00;;;;;;5022231;28;20056;-75
2022/04/10 12:42:59;;;;;;;2.35;0.60;;;12.70;66.20;;;;;;5021337;28;20099;-75
2022/04/10 12:45:29;;;;;;;1.48;0.50;;;12.70;66.00;;;;;;5028283;28;20067;-74
2022/04/10 12:47:57;;;;;;;1.10;0.40;;;12.70;66.20;;;;;;5042896;28;20072;-73
2022/04/10 12:50:26;;;;;;;1.95;0.60;;;12.70;67.10;;;;;;5035187;28;20061;-74
2022/04/10 12:52:55;;;;;;;1.40;0.50;;;12.80;66.10;;;;;;5032603;28;20046;-74
2022/04/10 12:55:23;;;;;;;1.40;0.60;;;12.70;66.10;;;;;;5025974;28;20045;-76
2022/04/10 12:57:54;;;;;;;1.50;0.50;;;12.70;66.00;;;;;;5020453;28;20037;-75
2022/04/10 13:00:26;;;;;;;1.13;0.50;;;12.80;66.10;;;;;;5022214;28;20045;-76
2022/04/10 13:02:53;;;;;;;1.42;0.50;;;12.70;66.10;;;;;;5020855;28;20045;-75